sensor_id;sensor_type;location;lat;lon;timestamp;P1;durP1;ratioP1;P2;durP2;ratioP2
11653;SDS011;5883;48.818;9.114;2023-01-28T00:00:47;5.15;;;4.38;;
11653;SDS011;5883;48.818;9.114;2023-01-28T00:03:13;5.63;;;4.55;;
11653;SDS011;5883;48.818;9.114;2023-01-28T00:05:41;5.43;;;4.15;;
11653;SDS011;5883;48.818;9.114;2023-01-28T00:08:07;5.80;;;4.60;;
11653;SDS011;5883;48.818;9.114;2023-01-28T00:10:35;5.82;;;4.55;;
11653;SDS011;5883;48.818;9.114;2023-01-28T00:13:05;5.63;;;3.97;;
11653;SDS011;5883;48.818;9.114;2023-01-28T00:15:31;6.28;;;4.75;;
11653;SDS011;5883;48.818;9.114;2023-01-28T00:17:58;5.65;;;4.45;;
11653;SDS011;5883;48.818;9.114;2023-01-28T00:20:24;5.88;;;4.57;;
11653;SDS011;5883;48.818;9.114;2023-01-28T00:22:54;5.10;;;4.22;;
11653;SDS011;5883;48.818;9.114;2023-01-28T00:25:21;6.15;;;4.55;;
11653;SDS011;5883;48.818;9.114;2023-01-28T00:27:48;5.60;;;4.03;;
11653;SDS011;5883;48.818;9.114;2023-01-28T00:30:16;5.28;;;3.80;;
11653;SDS011;5883;48.818;9.114;2023-01-28T00:32:43;4.97;;;4.15;;
11653;SDS011;5883;48.818;9.114;2023-01-28T00:35:09;4.68;;;4.03;;
11653;SDS011;5883;48.818;9.114;2023-01-28T00:37:37;5.27;;;4.10;;
11653;SDS011;5883;48.818;9.114;2023-01-28T00:40:03;5.93;;;4.43;;
11653;SDS011;5883;48.818;9.114;2023-01-28T00:42:30;6.18;;;4.78;;
11653;SDS011;5883;48.818;9.114;2023-01-28T00:44:56;5.57;;;4.60;;
11653;SDS011;5883;48.818;9.114;2023-01-28T00:47:24;5.82;;;4.57;;
11653;SDS011;5883;48.818;9.114;2023-01-28T00:49:51;6.55;;;4.10;;
11653;SDS011;5883;48.818;9.114;2023-01-28T00:52:17;5.65;;;4.30;;
11653;SDS011;5883;48.818;9.114;2023-01-28T00:54:43;4.57;;;3.95;;
11653;SDS011;5883;48.818;9.114;2023-01-28T00:57:10;5.22;;;4.15;;
11653;SDS011;5883;48.818;9.114;2023-01-28T00:59:36;4.53;;;4.10;;
11653;SDS011;5883;48.818;9.114;2023-01-28T01:02:03;5.63;;;4.25;;
11653;SDS011;5883;48.818;9.114;2023-01-28T01:04:38;6.13;;;4.65;;
11653;SDS011;5883;48.818;9.114;2023-01-28T01:07:05;5.97;;;4.50;;
11653;SDS011;5883;48.818;9.114;2023-01-28T01:09:31;4.47;;;3.85;;
11653;SDS011;5883;48.818;9.114;2023-01-28T01:11:58;4.32;;;3.90;;
11653;SDS011;5883;48.818;9.114;2023-01-28T01:14:24;4.47;;;3.35;;
11653;SDS011;5883;48.818;9.114;2023-01-28T01:16:51;4.90;;;4.05;;
11653;SDS011;5883;48.818;9.114;2023-01-28T01:19:17;4.60;;;4.00;;
11653;SDS011;5883;48.818;9.114;2023-01-28T01:21:45;4.47;;;3.72;;
11653;SDS011;5883;48.818;9.114;2023-01-28T01:24:14;5.45;;;3.38;;
11653;SDS011;5883;48.818;9.114;2023-01-28T01:26:41;4.88;;;3.67;;
11653;SDS011;5883;48.818;9.114;2023-01-28T01:29:07;4.40;;;3.50;;
11653;SDS011;5883;48.818;9.114;2023-01-28T01:31:34;4.00;;;3.53;;
11653;SDS011;5883;48.818;9.114;2023-01-28T01:34:00;5.70;;;3.63;;
11653;SDS011;5883;48.818;9.114;2023-01-28T01:36:27;4.68;;;3.85;;
11653;SDS011;5883;48.818;9.114;2023-01-28T01:38:54;4.65;;;3.67;;
11653;SDS011;5883;48.818;9.114;2023-01-28T01:41:23;4.27;;;3.27;;
11653;SDS011;5883;48.818;9.114;2023-01-28T01:43:51;4.32;;;3.40;;
11653;SDS011;5883;48.818;9.114;2023-01-28T01:46:18;4.22;;;3.33;;
11653;SDS011;5883;48.818;9.114;2023-01-28T01:48:46;4.28;;;3.47;;
11653;SDS011;5883;48.818;9.114;2023-01-28T01:51:14;5.03;;;3.67;;
11653;SDS011;5883;48.818;9.114;2023-01-28T01:53:43;4.32;;;3.45;;
11653;SDS011;5883;48.818;9.114;2023-01-28T01:56:13;5.03;;;3.60;;
11653;SDS011;5883;48.818;9.114;2023-01-28T01:58:41;4.47;;;3.60;;
11653;SDS011;5883;48.818;9.114;2023-01-28T02:01:09;4.10;;;3.22;;
11653;SDS011;5883;48.818;9.114;2023-01-28T02:03:37;4.20;;;3.33;;
11653;SDS011;5883;48.818;9.114;2023-01-28T02:06:06;5.50;;;4.30;;
11653;SDS011;5883;48.818;9.114;2023-01-28T02:08:33;4.13;;;3.28;;
11653;SDS011;5883;48.818;9.114;2023-01-28T02:11:00;4.75;;;3.30;;
11653;SDS011;5883;48.818;9.114;2023-01-28T02:13:29;3.75;;;3.10;;
11653;SDS011;5883;48.818;9.114;2023-01-28T02:15:56;3.85;;;3.10;;
11653;SDS011;5883;48.818;9.114;2023-01-28T02:18:24;6.32;;;3.72;;
11653;SDS011;5883;48.818;9.114;2023-01-28T02:20:56;3.60;;;3.28;;
11653;SDS011;5883;48.818;9.114;2023-01-28T02:23:32;4.10;;;3.70;;
11653;SDS011;5883;48.818;9.114;2023-01-28T02:28:51;5.03;;;3.60;;
11653;SDS011;5883;48.818;9.114;2023-01-28T02:31:21;4.30;;;3.30;;
11653;SDS011;5883;48.818;9.114;2023-01-28T02:33:51;3.92;;;3.30;;
11653;SDS011;5883;48.818;9.114;2023-01-28T02:36:20;4.10;;;3.45;;
11653;SDS011;5883;48.818;9.114;2023-01-28T02:38:49;4.95;;;3.50;;
11653;SDS011;5883;48.818;9.114;2023-01-28T02:41:17;3.53;;;3.22;;
11653;SDS011;5883;48.818;9.114;2023-01-28T02:43:46;4.25;;;3.38;;
11653;SDS011;5883;48.818;9.114;2023-01-28T02:46:16;4.28;;;3.42;;
11653;SDS011;5883;48.818;9.114;2023-01-28T02:49:00;3.95;;;3.55;;
11653;SDS011;5883;48.818;9.114;2023-01-28T02:51:31;5.57;;;4.17;;
11653;SDS011;5883;48.818;9.114;2023-01-28T02:54:00;4.85;;;3.75;;
11653;SDS011;5883;48.818;9.114;2023-01-28T02:56:29;5.22;;;3.97;;
11653;SDS011;5883;48.818;9.114;2023-01-28T02:59:00;3.85;;;3.42;;
11653;SDS011;5883;48.818;9.114;2023-01-28T03:01:49;4.47;;;3.53;;
11653;SDS011;5883;48.818;9.114;2023-01-28T03:04:22;4.22;;;3.63;;
11653;SDS011;5883;48.818;9.114;2023-01-28T03:06:52;4.35;;;3.42;;
11653;SDS011;5883;48.818;9.114;2023-01-28T03:09:20;5.78;;;3.72;;
11653;SDS011;5883;48.818;9.114;2023-01-28T03:11:49;4.80;;;3.92;;
11653;SDS011;5883;48.818;9.114;2023-01-28T03:14:34;4.70;;;3.78;;
11653;SDS011;5883;48.818;9.114;2023-01-28T03:17:20;4.22;;;3.28;;
11653;SDS011;5883;48.818;9.114;2023-01-28T03:20:07;5.25;;;3.55;;
11653;SDS011;5883;48.818;9.114;2023-01-28T03:22:52;4.32;;;3.80;;
11653;SDS011;5883;48.818;9.114;2023-01-28T03:25:37;5.10;;;3.60;;
11653;SDS011;5883;48.818;9.114;2023-01-28T03:28:23;4.65;;;3.78;;
11653;SDS011;5883;48.818;9.114;2023-01-28T03:31:09;6.03;;;4.38;;
11653;SDS011;5883;48.818;9.114;2023-01-28T03:33:55;4.43;;;4.00;;
11653;SDS011;5883;48.818;9.114;2023-01-28T03:36:39;5.80;;;4.05;;
11653;SDS011;5883;48.818;9.114;2023-01-28T03:39:16;5.78;;;4.22;;
11653;SDS011;5883;48.818;9.114;2023-01-28T03:41:42;6.50;;;4.78;;
11653;SDS011;5883;48.818;9.114;2023-01-28T03:44:20;6.10;;;5.00;;
11653;SDS011;5883;48.818;9.114;2023-01-28T03:47:04;7.45;;;5.00;;
11653;SDS011;5883;48.818;9.114;2023-01-28T03:49:34;6.15;;;4.97;;
11653;SDS011;5883;48.818;9.114;2023-01-28T03:52:00;6.78;;;5.10;;
11653;SDS011;5883;48.818;9.114;2023-01-28T03:54:27;8.13;;;5.55;;
11653;SDS011;5883;48.818;9.114;2023-01-28T03:56:53;6.57;;;5.85;;
11653;SDS011;5883;48.818;9.114;2023-01-28T03:59:19;7.60;;;5.13;;
11653;SDS011;5883;48.818;9.114;2023-01-28T04:01:46;8.75;;;5.32;;
11653;SDS011;5883;48.818;9.114;2023-01-28T04:04:14;8.18;;;5.25;;
11653;SDS011;5883;48.818;9.114;2023-01-28T04:06:48;6.82;;;5.03;;
11653;SDS011;5883;48.818;9.114;2023-01-28T04:09:14;6.43;;;5.28;;
11653;SDS011;5883;48.818;9.114;2023-01-28T04:11:41;8.30;;;5.13;;
11653;SDS011;5883;48.818;9.114;2023-01-28T04:14:07;7.10;;;5.43;;
11653;SDS011;5883;48.818;9.114;2023-01-28T04:16:34;8.10;;;5.55;;
11653;SDS011;5883;48.818;9.114;2023-01-28T04:19:00;7.90;;;6.00;;
11653;SDS011;5883;48.818;9.114;2023-01-28T04:21:26;9.13;;;5.75;;
11653;SDS011;5883;48.818;9.114;2023-01-28T04:23:54;6.87;;;5.33;;
11653;SDS011;5883;48.818;9.114;2023-01-28T04:26:21;8.00;;;6.18;;
11653;SDS011;5883;48.818;9.114;2023-01-28T04:28:47;7.77;;;6.13;;
11653;SDS011;5883;48.818;9.114;2023-01-28T04:31:13;9.20;;;6.22;;
11653;SDS011;5883;48.818;9.114;2023-01-28T04:33:40;8.60;;;6.27;;
11653;SDS011;5883;48.818;9.114;2023-01-28T04:36:06;8.87;;;6.67;;
11653;SDS011;5883;48.818;9.114;2023-01-28T04:38:33;8.80;;;6.13;;
11653;SDS011;5883;48.818;9.114;2023-01-28T04:41:01;8.02;;;6.22;;
11653;SDS011;5883;48.818;9.114;2023-01-28T04:43:27;8.43;;;5.78;;
11653;SDS011;5883;48.818;9.114;2023-01-28T04:45:54;7.57;;;6.10;;
11653;SDS011;5883;48.818;9.114;2023-01-28T04:48:20;8.10;;;6.05;;
11653;SDS011;5883;48.818;9.114;2023-01-28T04:50:46;9.07;;;6.33;;
11653;SDS011;5883;48.818;9.114;2023-01-28T04:53:13;8.32;;;5.80;;
11653;SDS011;5883;48.818;9.114;2023-01-28T04:55:39;6.63;;;5.47;;
11653;SDS011;5883;48.818;9.114;2023-01-28T04:58:07;7.78;;;5.78;;
11653;SDS011;5883;48.818;9.114;2023-01-28T05:00:34;8.17;;;6.30;;
11653;SDS011;5883;48.818;9.114;2023-01-28T05:03:00;7.18;;;5.35;;
11653;SDS011;5883;48.818;9.114;2023-01-28T05:05:27;8.80;;;6.75;;
11653;SDS011;5883;48.818;9.114;2023-01-28T05:07:53;6.70;;;5.50;;
11653;SDS011;5883;48.818;9.114;2023-01-28T05:10:20;7.90;;;6.03;;
11653;SDS011;5883;48.818;9.114;2023-01-28T05:12:47;7.15;;;5.78;;
11653;SDS011;5883;48.818;9.114;2023-01-28T05:15:15;8.05;;;5.68;;
11653;SDS011;5883;48.818;9.114;2023-01-28T05:17:42;7.25;;;5.70;;
11653;SDS011;5883;48.818;9.114;2023-01-28T05:20:09;7.93;;;5.72;;
11653;SDS011;5883;48.818;9.114;2023-01-28T05:22:35;6.63;;;5.15;;
11653;SDS011;5883;48.818;9.114;2023-01-28T05:25:02;7.68;;;5.55;;
11653;SDS011;5883;48.818;9.114;2023-01-28T05:27:28;6.32;;;4.95;;
11653;SDS011;5883;48.818;9.114;2023-01-28T05:29:55;6.65;;;5.35;;
11653;SDS011;5883;48.818;9.114;2023-01-28T05:32:23;6.18;;;4.72;;
11653;SDS011;5883;48.818;9.114;2023-01-28T05:34:49;6.07;;;4.88;;
11653;SDS011;5883;48.818;9.114;2023-01-28T05:37:16;6.13;;;4.40;;
11653;SDS011;5883;48.818;9.114;2023-01-28T05:39:42;7.35;;;5.40;;
11653;SDS011;5883;48.818;9.114;2023-01-28T05:42:09;5.88;;;4.53;;
11653;SDS011;5883;48.818;9.114;2023-01-28T05:44:35;6.28;;;4.53;;
11653;SDS011;5883;48.818;9.114;2023-01-28T05:47:02;6.10;;;5.23;;
11653;SDS011;5883;48.818;9.114;2023-01-28T05:49:30;6.93;;;4.93;;
11653;SDS011;5883;48.818;9.114;2023-01-28T05:51:56;6.82;;;5.32;;
11653;SDS011;5883;48.818;9.114;2023-01-28T05:54:22;7.38;;;5.72;;
11653;SDS011;5883;48.818;9.114;2023-01-28T05:56:49;5.82;;;4.90;;
11653;SDS011;5883;48.818;9.114;2023-01-28T05:59:15;7.20;;;4.72;;
11653;SDS011;5883;48.818;9.114;2023-01-28T06:01:42;9.02;;;5.28;;
11653;SDS011;5883;48.818;9.114;2023-01-28T06:04:08;7.70;;;5.43;;
11653;SDS011;5883;48.818;9.114;2023-01-28T06:06:36;7.47;;;5.32;;
11653;SDS011;5883;48.818;9.114;2023-01-28T06:09:03;6.43;;;4.97;;
11653;SDS011;5883;48.818;9.114;2023-01-28T06:11:29;7.20;;;5.40;;
11653;SDS011;5883;48.818;9.114;2023-01-28T06:13:56;7.33;;;5.70;;
11653;SDS011;5883;48.818;9.114;2023-01-28T06:16:22;7.07;;;5.55;;
11653;SDS011;5883;48.818;9.114;2023-01-28T06:18:49;7.63;;;5.28;;
11653;SDS011;5883;48.818;9.114;2023-01-28T06:21:15;6.85;;;5.38;;
11653;SDS011;5883;48.818;9.114;2023-01-28T06:23:43;7.10;;;5.30;;
11653;SDS011;5883;48.818;9.114;2023-01-28T06:26:10;6.90;;;5.65;;
11653;SDS011;5883;48.818;9.114;2023-01-28T06:28:36;7.22;;;5.38;;
11653;SDS011;5883;48.818;9.114;2023-01-28T06:31:03;5.93;;;4.97;;
11653;SDS011;5883;48.818;9.114;2023-01-28T06:33:29;10.48;;;5.90;;
11653;SDS011;5883;48.818;9.114;2023-01-28T06:35:56;6.97;;;5.55;;
11653;SDS011;5883;48.818;9.114;2023-01-28T06:38:23;8.70;;;5.90;;
11653;SDS011;5883;48.818;9.114;2023-01-28T06:40:51;7.53;;;5.32;;
11653;SDS011;5883;48.818;9.114;2023-01-28T06:43:19;6.53;;;5.40;;
11653;SDS011;5883;48.818;9.114;2023-01-28T06:45:51;9.13;;;5.80;;
11653;SDS011;5883;48.818;9.114;2023-01-28T06:48:18;6.75;;;5.47;;
11653;SDS011;5883;48.818;9.114;2023-01-28T06:50:45;8.13;;;5.65;;
11653;SDS011;5883;48.818;9.114;2023-01-28T06:53:12;9.13;;;5.77;;
11653;SDS011;5883;48.818;9.114;2023-01-28T06:55:38;8.38;;;6.18;;
11653;SDS011;5883;48.818;9.114;2023-01-28T06:58:06;8.48;;;6.30;;
11653;SDS011;5883;48.818;9.114;2023-01-28T07:00:33;6.43;;;5.13;;
11653;SDS011;5883;48.818;9.114;2023-01-28T07:02:59;7.60;;;6.05;;
11653;SDS011;5883;48.818;9.114;2023-01-28T07:05:25;7.90;;;5.97;;
11653;SDS011;5883;48.818;9.114;2023-01-28T07:07:52;7.67;;;6.07;;
11653;SDS011;5883;48.818;9.114;2023-01-28T07:10:18;7.80;;;6.43;;
11653;SDS011;5883;48.818;9.114;2023-01-28T07:12:45;8.20;;;6.50;;
11653;SDS011;5883;48.818;9.114;2023-01-28T07:15:13;8.07;;;6.20;;
11653;SDS011;5883;48.818;9.114;2023-01-28T07:17:40;10.95;;;7.13;;
11653;SDS011;5883;48.818;9.114;2023-01-28T07:20:08;9.07;;;5.70;;
11653;SDS011;5883;48.818;9.114;2023-01-28T07:22:35;9.73;;;6.70;;
11653;SDS011;5883;48.818;9.114;2023-01-28T07:25:03;9.10;;;7.25;;
11653;SDS011;5883;48.818;9.114;2023-01-28T07:27:30;8.23;;;6.60;;
11653;SDS011;5883;48.818;9.114;2023-01-28T07:29:56;7.47;;;5.85;;
11653;SDS011;5883;48.818;9.114;2023-01-28T07:32:24;8.60;;;6.70;;
11653;SDS011;5883;48.818;9.114;2023-01-28T07:34:51;9.48;;;6.57;;
11653;SDS011;5883;48.818;9.114;2023-01-28T07:37:18;8.45;;;6.18;;
11653;SDS011;5883;48.818;9.114;2023-01-28T07:39:44;8.13;;;6.35;;
11653;SDS011;5883;48.818;9.114;2023-01-28T07:42:11;8.93;;;6.50;;
11653;SDS011;5883;48.818;9.114;2023-01-28T07:44:37;6.75;;;5.65;;
11653;SDS011;5883;48.818;9.114;2023-01-28T07:47:04;7.93;;;5.85;;
11653;SDS011;5883;48.818;9.114;2023-01-28T07:49:33;8.85;;;6.18;;
11653;SDS011;5883;48.818;9.114;2023-01-28T07:51:59;9.32;;;6.93;;
11653;SDS011;5883;48.818;9.114;2023-01-28T07:54:26;8.18;;;6.07;;
11653;SDS011;5883;48.818;9.114;2023-01-28T07:56:52;7.97;;;6.03;;
11653;SDS011;5883;48.818;9.114;2023-01-28T07:59:19;10.65;;;7.57;;
11653;SDS011;5883;48.818;9.114;2023-01-28T08:01:45;8.10;;;5.85;;
11653;SDS011;5883;48.818;9.114;2023-01-28T08:04:11;9.05;;;6.82;;
11653;SDS011;5883;48.818;9.114;2023-01-28T08:06:39;8.88;;;6.78;;
11653;SDS011;5883;48.818;9.114;2023-01-28T08:09:06;9.70;;;6.50;;
11653;SDS011;5883;48.818;9.114;2023-01-28T08:11:33;10.93;;;6.93;;
11653;SDS011;5883;48.818;9.114;2023-01-28T08:14:00;7.50;;;6.68;;
11653;SDS011;5883;48.818;9.114;2023-01-28T08:16:26;11.55;;;7.13;;
11653;SDS011;5883;48.818;9.114;2023-01-28T08:18:53;8.30;;;6.43;;
11653;SDS011;5883;48.818;9.114;2023-01-28T08:21:20;9.95;;;6.78;;
11653;SDS011;5883;48.818;9.114;2023-01-28T08:23:47;9.07;;;7.22;;
11653;SDS011;5883;48.818;9.114;2023-01-28T08:26:14;9.85;;;7.78;;
11653;SDS011;5883;48.818;9.114;2023-01-28T08:28:40;10.27;;;7.15;;
11653;SDS011;5883;48.818;9.114;2023-01-28T08:31:07;10.10;;;7.63;;
11653;SDS011;5883;48.818;9.114;2023-01-28T08:33:33;11.32;;;8.00;;
11653;SDS011;5883;48.818;9.114;2023-01-28T08:36:01;10.18;;;7.85;;
11653;SDS011;5883;48.818;9.114;2023-01-28T08:38:27;12.50;;;7.13;;
11653;SDS011;5883;48.818;9.114;2023-01-28T08:40:56;10.60;;;6.97;;
11653;SDS011;5883;48.818;9.114;2023-01-28T08:43:23;9.85;;;7.03;;
11653;SDS011;5883;48.818;9.114;2023-01-28T08:45:50;9.35;;;6.97;;
11653;SDS011;5883;48.818;9.114;2023-01-28T08:48:17;10.00;;;7.15;;
11653;SDS011;5883;48.818;9.114;2023-01-28T08:50:47;10.35;;;6.80;;
11653;SDS011;5883;48.818;9.114;2023-01-28T08:53:15;9.55;;;7.40;;
11653;SDS011;5883;48.818;9.114;2023-01-28T08:55:42;10.32;;;7.40;;
11653;SDS011;5883;48.818;9.114;2023-01-28T08:58:10;8.95;;;6.75;;
11653;SDS011;5883;48.818;9.114;2023-01-28T09:00:37;8.80;;;7.35;;
11653;SDS011;5883;48.818;9.114;2023-01-28T09:03:03;11.23;;;8.10;;
11653;SDS011;5883;48.818;9.114;2023-01-28T09:05:30;9.75;;;8.00;;
11653;SDS011;5883;48.818;9.114;2023-01-28T09:07:59;10.82;;;7.90;;
11653;SDS011;5883;48.818;9.114;2023-01-28T09:10:26;9.73;;;7.88;;
11653;SDS011;5883;48.818;9.114;2023-01-28T09:12:52;12.00;;;8.15;;
11653;SDS011;5883;48.818;9.114;2023-01-28T09:15:20;10.35;;;7.75;;
11653;SDS011;5883;48.818;9.114;2023-01-28T09:17:46;10.35;;;7.80;;
11653;SDS011;5883;48.818;9.114;2023-01-28T09:20:13;9.88;;;8.00;;
11653;SDS011;5883;48.818;9.114;2023-01-28T09:22:39;11.10;;;8.13;;
11653;SDS011;5883;48.818;9.114;2023-01-28T09:25:06;10.10;;;7.55;;
11653;SDS011;5883;48.818;9.114;2023-01-28T09:27:32;11.02;;;7.65;;
11653;SDS011;5883;48.818;9.114;2023-01-28T09:29:59;13.80;;;8.45;;
11653;SDS011;5883;48.818;9.114;2023-01-28T09:32:27;11.10;;;7.45;;
11653;SDS011;5883;48.818;9.114;2023-01-28T09:34:55;11.25;;;7.95;;
11653;SDS011;5883;48.818;9.114;2023-01-28T09:37:21;12.45;;;8.25;;
11653;SDS011;5883;48.818;9.114;2023-01-28T09:39:48;11.38;;;8.18;;
11653;SDS011;5883;48.818;9.114;2023-01-28T09:42:24;10.48;;;8.27;;
11653;SDS011;5883;48.818;9.114;2023-01-28T09:44:57;11.45;;;8.23;;
11653;SDS011;5883;48.818;9.114;2023-01-28T09:47:29;9.98;;;8.25;;
11653;SDS011;5883;48.818;9.114;2023-01-28T09:49:57;10.30;;;8.05;;
11653;SDS011;5883;48.818;9.114;2023-01-28T09:52:24;10.48;;;8.32;;
11653;SDS011;5883;48.818;9.114;2023-01-28T09:54:52;11.23;;;8.38;;
11653;SDS011;5883;48.818;9.114;2023-01-28T09:57:22;12.35;;;8.65;;
11653;SDS011;5883;48.818;9.114;2023-01-28T09:59:49;14.45;;;8.90;;
11653;SDS011;5883;48.818;9.114;2023-01-28T10:02:22;13.15;;;8.85;;
11653;SDS011;5883;48.818;9.114;2023-01-28T10:04:57;12.63;;;8.27;;
11653;SDS011;5883;48.818;9.114;2023-01-28T10:07:28;11.35;;;8.68;;
11653;SDS011;5883;48.818;9.114;2023-01-28T10:09:57;11.52;;;8.73;;
11653;SDS011;5883;48.818;9.114;2023-01-28T10:15:26;15.63;;;9.50;;
11653;SDS011;5883;48.818;9.114;2023-01-28T10:17:56;13.70;;;9.45;;
11653;SDS011;5883;48.818;9.114;2023-01-28T10:20:26;13.02;;;9.60;;
11653;SDS011;5883;48.818;9.114;2023-01-28T10:22:55;15.15;;;9.57;;
11653;SDS011;5883;48.818;9.114;2023-01-28T10:25:24;12.35;;;9.23;;
11653;SDS011;5883;48.818;9.114;2023-01-28T10:27:51;13.70;;;9.55;;
11653;SDS011;5883;48.818;9.114;2023-01-28T10:30:18;13.50;;;9.48;;
11653;SDS011;5883;48.818;9.114;2023-01-28T10:32:46;15.63;;;9.93;;
11653;SDS011;5883;48.818;9.114;2023-01-28T10:35:15;11.57;;;8.77;;
11653;SDS011;5883;48.818;9.114;2023-01-28T10:37:42;13.27;;;9.50;;
11653;SDS011;5883;48.818;9.114;2023-01-28T10:40:11;11.00;;;8.52;;
11653;SDS011;5883;48.818;9.114;2023-01-28T10:42:38;13.73;;;9.70;;
11653;SDS011;5883;48.818;9.114;2023-01-28T10:45:06;13.57;;;9.23;;
11653;SDS011;5883;48.818;9.114;2023-01-28T10:47:34;12.40;;;9.43;;
11653;SDS011;5883;48.818;9.114;2023-01-28T10:50:03;11.88;;;9.13;;
11653;SDS011;5883;48.818;9.114;2023-01-28T10:52:30;14.25;;;9.32;;
11653;SDS011;5883;48.818;9.114;2023-01-28T10:55:01;14.52;;;9.90;;
11653;SDS011;5883;48.818;9.114;2023-01-28T10:57:28;13.18;;;8.90;;
11653;SDS011;5883;48.818;9.114;2023-01-28T10:59:55;12.13;;;9.30;;
11653;SDS011;5883;48.818;9.114;2023-01-28T11:02:24;14.43;;;10.05;;
11653;SDS011;5883;48.818;9.114;2023-01-28T11:04:59;13.32;;;9.63;;
11653;SDS011;5883;48.818;9.114;2023-01-28T11:07:26;14.93;;;9.65;;
11653;SDS011;5883;48.818;9.114;2023-01-28T11:09:52;14.10;;;8.93;;
11653;SDS011;5883;48.818;9.114;2023-01-28T11:12:21;14.00;;;9.88;;
11653;SDS011;5883;48.818;9.114;2023-01-28T11:14:49;13.30;;;9.45;;
11653;SDS011;5883;48.818;9.114;2023-01-28T11:17:15;13.43;;;9.30;;
11653;SDS011;5883;48.818;9.114;2023-01-28T11:19:43;13.23;;;9.48;;
11653;SDS011;5883;48.818;9.114;2023-01-28T11:22:13;13.43;;;9.35;;
11653;SDS011;5883;48.818;9.114;2023-01-28T11:24:44;12.13;;;8.95;;
11653;SDS011;5883;48.818;9.114;2023-01-28T11:27:12;12.98;;;9.18;;
11653;SDS011;5883;48.818;9.114;2023-01-28T11:29:41;13.50;;;9.70;;
11653;SDS011;5883;48.818;9.114;2023-01-28T11:32:15;15.23;;;9.20;;
11653;SDS011;5883;48.818;9.114;2023-01-28T11:34:47;16.27;;;9.57;;
11653;SDS011;5883;48.818;9.114;2023-01-28T11:37:14;11.75;;;9.10;;
11653;SDS011;5883;48.818;9.114;2023-01-28T11:39:40;12.40;;;9.05;;
11653;SDS011;5883;48.818;9.114;2023-01-28T11:42:11;13.57;;;10.05;;
11653;SDS011;5883;48.818;9.114;2023-01-28T11:44:38;15.15;;;9.80;;
11653;SDS011;5883;48.818;9.114;2023-01-28T11:49:56;13.38;;;9.02;;
11653;SDS011;5883;48.818;9.114;2023-01-28T11:52:30;15.55;;;9.15;;
11653;SDS011;5883;48.818;9.114;2023-01-28T11:55:05;12.55;;;9.07;;
11653;SDS011;5883;48.818;9.114;2023-01-28T11:57:36;15.73;;;10.52;;
11653;SDS011;5883;48.818;9.114;2023-01-28T12:00:19;17.23;;;10.73;;
11653;SDS011;5883;48.818;9.114;2023-01-28T12:02:51;15.10;;;10.15;;
11653;SDS011;5883;48.818;9.114;2023-01-28T12:05:37;15.02;;;10.50;;
11653;SDS011;5883;48.818;9.114;2023-01-28T12:08:06;15.32;;;9.77;;
11653;SDS011;5883;48.818;9.114;2023-01-28T12:10:37;15.60;;;9.70;;
11653;SDS011;5883;48.818;9.114;2023-01-28T12:13:08;15.00;;;10.02;;
11653;SDS011;5883;48.818;9.114;2023-01-28T12:15:50;17.35;;;10.25;;
11653;SDS011;5883;48.818;9.114;2023-01-28T12:18:24;16.42;;;9.85;;
11653;SDS011;5883;48.818;9.114;2023-01-28T12:20:56;14.60;;;8.88;;
11653;SDS011;5883;48.818;9.114;2023-01-28T12:23:29;15.07;;;10.32;;
11653;SDS011;5883;48.818;9.114;2023-01-28T12:26:04;14.93;;;10.15;;
11653;SDS011;5883;48.818;9.114;2023-01-28T12:28:36;15.02;;;10.40;;
11653;SDS011;5883;48.818;9.114;2023-01-28T12:31:09;12.25;;;9.35;;
11653;SDS011;5883;48.818;9.114;2023-01-28T12:33:48;14.35;;;8.98;;
11653;SDS011;5883;48.818;9.114;2023-01-28T12:36:26;12.32;;;8.93;;
11653;SDS011;5883;48.818;9.114;2023-01-28T12:38:56;12.02;;;8.65;;
11653;SDS011;5883;48.818;9.114;2023-01-28T12:41:27;12.05;;;8.20;;
11653;SDS011;5883;48.818;9.114;2023-01-28T12:43:55;10.88;;;7.32;;
11653;SDS011;5883;48.818;9.114;2023-01-28T12:46:28;10.27;;;7.78;;
11653;SDS011;5883;48.818;9.114;2023-01-28T12:48:58;11.23;;;8.30;;
11653;SDS011;5883;48.818;9.114;2023-01-28T12:51:28;11.02;;;8.10;;
11653;SDS011;5883;48.818;9.114;2023-01-28T12:53:56;10.80;;;7.63;;
11653;SDS011;5883;48.818;9.114;2023-01-28T12:56:26;11.80;;;7.63;;
11653;SDS011;5883;48.818;9.114;2023-01-28T12:58:54;10.95;;;7.55;;
11653;SDS011;5883;48.818;9.114;2023-01-28T13:01:23;9.32;;;7.15;;
11653;SDS011;5883;48.818;9.114;2023-01-28T13:03:53;8.93;;;6.63;;
11653;SDS011;5883;48.818;9.114;2023-01-28T13:06:23;9.23;;;6.57;;
11653;SDS011;5883;48.818;9.114;2023-01-28T13:08:51;9.32;;;6.97;;
11653;SDS011;5883;48.818;9.114;2023-01-28T13:11:21;11.00;;;7.60;;
11653;SDS011;5883;48.818;9.114;2023-01-28T13:13:49;10.40;;;7.43;;
11653;SDS011;5883;48.818;9.114;2023-01-28T13:16:16;9.60;;;7.13;;
11653;SDS011;5883;48.818;9.114;2023-01-28T13:18:43;9.60;;;7.15;;
11653;SDS011;5883;48.818;9.114;2023-01-28T13:21:15;7.78;;;6.82;;
11653;SDS011;5883;48.818;9.114;2023-01-28T13:23:42;9.52;;;7.15;;
11653;SDS011;5883;48.818;9.114;2023-01-28T13:26:24;10.77;;;7.15;;
11653;SDS011;5883;48.818;9.114;2023-01-28T13:28:52;8.75;;;6.90;;
11653;SDS011;5883;48.818;9.114;2023-01-28T13:31:20;10.20;;;7.63;;
11653;SDS011;5883;48.818;9.114;2023-01-28T13:33:47;11.23;;;7.95;;
11653;SDS011;5883;48.818;9.114;2023-01-28T13:36:21;10.45;;;7.55;;
11653;SDS011;5883;48.818;9.114;2023-01-28T13:38:57;9.88;;;7.47;;
11653;SDS011;5883;48.818;9.114;2023-01-28T13:41:36;11.82;;;7.07;;
11653;SDS011;5883;48.818;9.114;2023-01-28T13:44:03;9.85;;;7.32;;
11653;SDS011;5883;48.818;9.114;2023-01-28T13:46:29;11.45;;;7.25;;
11653;SDS011;5883;48.818;9.114;2023-01-28T13:48:56;10.25;;;7.65;;
11653;SDS011;5883;48.818;9.114;2023-01-28T13:51:23;12.30;;;7.95;;
11653;SDS011;5883;48.818;9.114;2023-01-28T13:53:54;10.55;;;7.38;;
11653;SDS011;5883;48.818;9.114;2023-01-28T13:56:24;11.07;;;7.97;;
11653;SDS011;5883;48.818;9.114;2023-01-28T14:01:58;10.60;;;7.88;;
11653;SDS011;5883;48.818;9.114;2023-01-28T14:07:22;10.50;;;7.40;;
11653;SDS011;5883;48.818;9.114;2023-01-28T14:09:58;11.93;;;8.40;;
11653;SDS011;5883;48.818;9.114;2023-01-28T14:12:41;8.70;;;6.78;;
11653;SDS011;5883;48.818;9.114;2023-01-28T14:17:53;9.45;;;7.22;;
11653;SDS011;5883;48.818;9.114;2023-01-28T14:20:21;10.38;;;6.85;;
11653;SDS011;5883;48.818;9.114;2023-01-28T14:22:48;7.65;;;6.63;;
11653;SDS011;5883;48.818;9.114;2023-01-28T14:25:15;9.60;;;7.05;;
11653;SDS011;5883;48.818;9.114;2023-01-28T14:27:46;7.97;;;6.75;;
11653;SDS011;5883;48.818;9.114;2023-01-28T14:30:17;8.77;;;7.05;;
11653;SDS011;5883;48.818;9.114;2023-01-28T14:32:45;8.63;;;6.10;;
11653;SDS011;5883;48.818;9.114;2023-01-28T14:35:16;9.70;;;6.57;;
11653;SDS011;5883;48.818;9.114;2023-01-28T14:37:43;7.35;;;6.10;;
11653;SDS011;5883;48.818;9.114;2023-01-28T14:40:11;10.43;;;6.63;;
11653;SDS011;5883;48.818;9.114;2023-01-28T14:42:39;8.43;;;6.65;;
11653;SDS011;5883;48.818;9.114;2023-01-28T14:45:09;7.80;;;6.32;;
11653;SDS011;5883;48.818;9.114;2023-01-28T14:47:48;8.45;;;6.65;;
11653;SDS011;5883;48.818;9.114;2023-01-28T14:50:24;9.18;;;6.20;;
11653;SDS011;5883;48.818;9.114;2023-01-28T14:53:12;8.68;;;6.15;;
11653;SDS011;5883;48.818;9.114;2023-01-28T14:55:44;9.70;;;6.57;;
11653;SDS011;5883;48.818;9.114;2023-01-28T14:58:14;11.13;;;6.25;;
11653;SDS011;5883;48.818;9.114;2023-01-28T15:00:51;7.10;;;5.72;;
11653;SDS011;5883;48.818;9.114;2023-01-28T15:03:17;7.63;;;6.05;;
11653;SDS011;5883;48.818;9.114;2023-01-28T15:05:45;9.68;;;6.18;;
11653;SDS011;5883;48.818;9.114;2023-01-28T15:08:18;6.70;;;5.88;;
11653;SDS011;5883;48.818;9.114;2023-01-28T15:10:44;7.93;;;6.50;;
11653;SDS011;5883;48.818;9.114;2023-01-28T15:13:14;8.95;;;6.20;;
11653;SDS011;5883;48.818;9.114;2023-01-28T15:15:45;6.30;;;5.35;;
11653;SDS011;5883;48.818;9.114;2023-01-28T15:18:14;6.38;;;5.32;;
11653;SDS011;5883;48.818;9.114;2023-01-28T15:20:42;7.53;;;5.95;;
11653;SDS011;5883;48.818;9.114;2023-01-28T15:23:12;5.68;;;5.07;;